createdAt,value
2019-01-06T00:01:48.564Z,6.10
2019-01-06T00:04:36.148Z,6.10
2019-01-06T00:07:35.062Z,6.10
2019-01-06T00:10:31.964Z,6.00
2019-01-06T00:13:27.543Z,6.10
2019-01-06T00:16:21.681Z,6.00
2019-01-06T00:19:09.470Z,6.10
2019-01-06T00:22:03.708Z,6.00
2019-01-06T00:25:10.228Z,6.00
2019-01-06T00:27:58.377Z,6.00
2019-01-06T00:30:46.720Z,6.00
2019-01-06T00:33:35.149Z,6.00
2019-01-06T00:36:23.565Z,6.00
2019-01-06T00:39:07.589Z,6.00
2019-01-06T00:41:58.500Z,6.00
2019-01-06T00:44:45.639Z,6.00
2019-01-06T00:47:29.422Z,6.00
2019-01-06T00:50:16.352Z,6.00
2019-01-06T00:53:00.787Z,6.00
2019-01-06T00:55:54.904Z,6.00
2019-01-06T00:58:41.823Z,6.00
2019-01-06T01:01:36.212Z,6.00
2019-01-06T01:04:23.302Z,6.00
2019-01-06T01:07:17.602Z,5.90
2019-01-06T01:10:04.322Z,5.90
2019-01-06T01:12:57.777Z,5.90
2019-01-06T01:15:44.478Z,5.90
2019-01-06T01:18:31.333Z,5.90
2019-01-06T01:21:19.655Z,5.90
2019-01-06T01:24:17.913Z,5.90
2019-01-06T01:27:21.281Z,5.90
2019-01-06T01:30:12.432Z,5.90
2019-01-06T01:33:02.620Z,5.90
2019-01-06T01:35:57.068Z,5.90
2019-01-06T01:38:44.008Z,5.90
2019-01-06T01:41:34.948Z,5.80
2019-01-06T01:44:38.312Z,5.80
2019-01-06T01:47:34.141Z,5.80
2019-01-06T01:50:29.945Z,5.80
2019-01-06T01:53:16.969Z,5.80
2019-01-06T01:56:07.173Z,5.80
2019-01-06T01:59:01.415Z,5.80
2019-01-06T02:02:08.985Z,5.80
2019-01-06T02:04:55.976Z,5.70
2019-01-06T02:07:59.436Z,5.70
2019-01-06T02:10:51.093Z,5.70
2019-01-06T02:13:37.902Z,5.70
2019-01-06T02:16:26.083Z,5.70
2019-01-06T02:19:30.360Z,5.70
2019-01-06T02:22:16.148Z,5.70
2019-01-06T02:25:19.888Z,5.70
2019-01-06T02:28:08.285Z,5.70
2019-01-06T02:30:56.632Z,5.70
2019-01-06T02:33:51.007Z,5.70
2019-01-06T02:36:38.256Z,5.60
2019-01-06T02:39:29.642Z,5.60
2019-01-06T02:42:18.059Z,5.60
2019-01-06T02:45:10.438Z,5.60
2019-01-06T02:48:04.647Z,5.60
2019-01-06T02:50:55.842Z,5.60
2019-01-06T02:54:00.261Z,5.60
2019-01-06T02:56:47.323Z,5.60
2019-01-06T02:59:34.184Z,5.60
2019-01-06T03:02:21.156Z,5.60
2019-01-06T03:05:11.196Z,5.60
2019-01-06T03:07:59.564Z,5.60
2019-01-06T03:10:50.557Z,5.60
2019-01-06T03:13:43.418Z,5.60
2019-01-06T03:16:49.940Z,5.60
2019-01-06T03:19:56.446Z,5.60
2019-01-06T03:22:54.547Z,5.50
2019-01-06T03:25:41.740Z,5.50
2019-01-06T03:28:45.213Z,5.50
2019-01-06T03:31:39.980Z,5.50
2019-01-06T03:34:27.036Z,5.50
2019-01-06T03:37:16.283Z,5.50
2019-01-06T03:40:03.251Z,5.50
2019-01-06T03:42:48.632Z,5.50
2019-01-06T03:45:45.972Z,5.40
2019-01-06T03:48:37.329Z,5.50
2019-01-06T03:51:31.862Z,5.50
2019-01-06T03:54:35.648Z,5.40
2019-01-06T03:57:39.169Z,5.40
2019-01-06T04:00:45.777Z,5.40
2019-01-06T04:03:46.153Z,5.40
2019-01-06T04:06:32.940Z,5.40
2019-01-06T04:09:28.713Z,5.40
2019-01-06T04:12:15.633Z,5.40
2019-01-06T04:15:06.745Z,5.40
2019-01-06T04:17:55.061Z,5.40
2019-01-06T04:20:46.243Z,5.40
2019-01-06T04:23:49.087Z,5.40
2019-01-06T04:26:36.877Z,5.40
2019-01-06T04:29:33.998Z,5.40
2019-01-06T04:32:30.838Z,5.40
2019-01-06T04:35:21.928Z,5.40
2019-01-06T04:38:11.039Z,5.40
2019-01-06T04:40:57.927Z,5.40
2019-01-06T04:43:55.228Z,5.40
2019-01-06T04:46:55.969Z,5.40
2019-01-06T04:49:47.017Z,5.30
2019-01-06T04:52:35.441Z,5.30
2019-01-06T04:55:23.776Z,5.30
2019-01-06T04:58:10.692Z,5.30
2019-01-06T05:00:59.172Z,5.40
2019-01-06T05:04:18.426Z,5.30
2019-01-06T05:07:07.204Z,5.30
2019-01-06T05:10:03.125Z,5.30
2019-01-06T05:12:57.497Z,5.30
2019-01-06T05:15:44.643Z,5.30
2019-01-06T05:18:42.072Z,5.30
2019-01-06T05:21:45.261Z,5.40
2019-01-06T05:24:32.178Z,5.30
2019-01-06T05:27:22.517Z,5.30
2019-01-06T05:30:16.873Z,5.40
2019-01-06T05:33:11.004Z,5.30
2019-01-06T05:36:08.746Z,5.40
2019-01-06T05:38:58.390Z,5.30
2019-01-06T05:41:46.711Z,5.40
2019-01-06T05:44:35.155Z,5.40
2019-01-06T05:47:26.512Z,5.40
2019-01-06T05:50:25.336Z,5.40
2019-01-06T05:53:12.420Z,5.40
2019-01-06T05:56:06.640Z,5.40
2019-01-06T05:58:57.679Z,5.40
2019-01-06T06:01:44.689Z,5.40
2019-01-06T06:04:48.136Z,5.40
2019-01-06T06:07:46.472Z,5.40
2019-01-06T06:10:34.680Z,5.40
2019-01-06T06:13:22.720Z,5.40
2019-01-06T06:16:09.838Z,5.40
2019-01-06T06:18:56.716Z,5.40
2019-01-06T06:21:50.963Z,5.40
2019-01-06T06:24:42.087Z,5.40
2019-01-06T06:27:39.365Z,5.40
2019-01-06T06:30:27.041Z,5.40
2019-01-06T06:33:21.324Z,5.40
2019-01-06T06:36:09.668Z,5.40
2019-01-06T06:38:57.989Z,5.40
2019-01-06T06:41:58.600Z,5.40
2019-01-06T06:44:50.226Z,5.40
2019-01-06T06:47:37.344Z,5.40
2019-01-06T06:50:34.679Z,5.40
2019-01-06T06:53:32.100Z,5.40
2019-01-06T06:56:33.900Z,5.40
2019-01-06T06:59:16.882Z,5.40
2019-01-06T07:02:47.693Z,5.40
2019-01-06T07:05:34.660Z,5.40
2019-01-06T07:08:24.314Z,5.40
2019-01-06T07:11:11.013Z,5.40
2019-01-06T07:13:59.329Z,5.40
2019-01-06T07:17:34.716Z,5.40
2019-01-06T07:20:27.536Z,5.40
2019-01-06T07:23:19.699Z,5.40
2019-01-06T07:26:06.695Z,5.30
2019-01-06T07:28:53.499Z,5.30
2019-01-06T07:31:32.050Z,5.40
2019-01-06T07:34:29.278Z,5.40
2019-01-06T07:37:23.547Z,5.40
2019-01-06T07:40:12.183Z,5.40
2019-01-06T07:42:59.176Z,5.40
2019-01-06T07:45:51.967Z,5.40
2019-01-06T07:48:34.828Z,5.40
2019-01-06T07:51:38.346Z,5.40
2019-01-06T07:54:26.680Z,5.50
2019-01-06T07:57:09.503Z,5.40
2019-01-06T07:59:57.113Z,5.50
2019-01-06T08:02:57.468Z,5.50
2019-01-06T08:05:44.606Z,5.50
2019-01-06T08:08:48.157Z,5.60
2019-01-06T08:11:39.064Z,5.60
2019-01-06T08:14:39.237Z,5.60
2019-01-06T08:17:26.123Z,5.70
2019-01-06T08:20:13.124Z,5.80
2019-01-06T08:23:01.446Z,5.80
2019-01-06T08:26:01.678Z,5.90
2019-01-06T08:28:55.921Z,5.90
2019-01-06T08:31:53.776Z,6.00
2019-01-06T08:34:44.929Z,6.10
2019-01-06T08:37:49.964Z,6.20
2019-01-06T08:40:38.464Z,6.30
2019-01-06T08:43:23.490Z,6.40
2019-01-06T08:46:20.451Z,6.50
2019-01-06T08:49:18.001Z,6.60
2019-01-06T08:52:00.431Z,6.70
2019-01-06T08:55:07.190Z,6.80
2019-01-06T08:57:55.500Z,6.90
2019-01-06T09:00:43.831Z,7.00
2019-01-06T09:03:38.044Z,7.20
2019-01-06T09:06:26.464Z,7.30
2019-01-06T09:09:05.331Z,7.40
2019-01-06T09:12:05.852Z,7.50
2019-01-06T09:15:09.247Z,7.60
2019-01-06T09:17:56.251Z,7.80
2019-01-06T09:20:58.094Z,7.90
2019-01-06T09:23:46.521Z,8.00
2019-01-06T09:26:33.481Z,8.10
2019-01-06T09:29:21.885Z,8.30
2019-01-06T09:32:12.758Z,8.30
2019-01-06T09:35:17.054Z,8.50
2019-01-06T09:38:03.888Z,8.70
2019-01-06T09:41:03.985Z,8.90
2019-01-06T09:43:56.077Z,9.10
2019-01-06T09:46:52.060Z,9.20
2019-01-06T09:49:41.976Z,9.20
2019-01-06T09:52:37.690Z,9.20
2019-01-06T09:55:29.790Z,9.20
2019-01-06T09:58:20.999Z,9.20
2019-01-06T10:01:04.551Z,9.30
2019-01-06T10:04:05.880Z,9.60
2019-01-06T10:06:52.981Z,9.80
2019-01-06T10:09:39.776Z,10.00
2019-01-06T10:12:26.577Z,9.90
2019-01-06T10:15:27.676Z,9.80
2019-01-06T10:18:18.506Z,9.70
2019-01-06T10:21:06.834Z,9.60
2019-01-06T10:23:53.613Z,9.60
2019-01-06T10:26:41.877Z,9.60
2019-01-06T10:29:30.225Z,9.50
2019-01-06T10:32:15.376Z,9.60
2019-01-06T10:35:03.733Z,9.70
2019-01-06T10:37:50.483Z,10.10
2019-01-06T10:40:38.884Z,10.50
2019-01-06T10:43:33.168Z,11.00
2019-01-06T10:46:33.569Z,11.40
2019-01-06T10:49:21.991Z,11.80
2019-01-06T10:52:23.602Z,12.00
2019-01-06T10:55:23.556Z,12.30
2019-01-06T10:58:10.667Z,12.50
2019-01-06T11:01:12.932Z,12.80
2019-01-06T11:03:59.885Z,12.90
2019-01-06T11:07:06.741Z,12.90
2019-01-06T11:09:55.127Z,12.90
2019-01-06T11:12:43.129Z,13.00
2019-01-06T11:15:29.892Z,13.20
2019-01-06T11:18:18.224Z,13.30
2019-01-06T11:21:09.209Z,13.40
2019-01-06T11:23:56.489Z,13.70
2019-01-06T11:27:00.132Z,14.00
2019-01-06T11:29:48.622Z,14.10
2019-01-06T11:32:35.797Z,14.10
2019-01-06T11:35:30.741Z,14.00
2019-01-06T11:38:18.263Z,14.00
2019-01-06T11:41:08.156Z,14.00
2019-01-06T11:43:56.970Z,13.90
2019-01-06T11:46:51.834Z,13.80
2019-01-06T11:49:46.558Z,13.80
2019-01-06T11:52:34.037Z,14.00
2019-01-06T11:55:21.809Z,14.00
2019-01-06T11:58:19.910Z,14.10
2019-01-06T12:01:07.088Z,14.20
2019-01-06T12:04:00.333Z,14.30
2019-01-06T12:06:49.612Z,14.60
2019-01-06T12:09:37.280Z,15.10
2019-01-06T12:12:41.393Z,15.70
2019-01-06T12:15:43.345Z,16.40
2019-01-06T12:18:50.573Z,17.60
2019-01-06T12:21:42.600Z,19.00
2019-01-06T12:24:26.143Z,20.30
2019-01-06T12:27:18.213Z,21.50
2019-01-06T12:30:05.745Z,22.50
2019-01-06T12:33:09.559Z,23.30
2019-01-06T12:35:57.675Z,24.00
2019-01-06T12:38:45.549Z,24.60
2019-01-06T12:41:33.787Z,25.00
2019-01-06T12:44:21.913Z,25.20
2019-01-06T12:47:24.018Z,25.30
2019-01-06T12:50:04.645Z,25.60
2019-01-06T12:52:59.669Z,26.00
2019-01-06T12:55:49.710Z,26.00
2019-01-06T12:58:38.952Z,26.00
2019-01-06T13:01:27.621Z,25.80
2019-01-06T13:04:17.702Z,25.30
2019-01-06T13:07:06.076Z,24.50
2019-01-06T13:10:05.477Z,23.50
2019-01-06T13:12:53.813Z,22.80
2019-01-06T13:15:44.134Z,22.70
2019-01-06T13:18:52.308Z,23.00
2019-01-06T13:21:48.425Z,23.30
2019-01-06T13:24:53.520Z,23.70
2019-01-06T13:27:46.656Z,23.80
2019-01-06T13:30:30.371Z,23.90
2019-01-06T13:33:38.479Z,23.90
2019-01-06T13:36:27.305Z,23.50
2019-01-06T13:39:20.423Z,23.00
2019-01-06T13:42:10.832Z,22.50
2019-01-06T13:45:16.701Z,22.10
2019-01-06T13:48:12.556Z,21.60
2019-01-06T13:51:01.531Z,21.10
2019-01-06T13:54:00.677Z,20.80
2019-01-06T13:56:59.791Z,20.50
2019-01-06T13:59:48.489Z,20.00
2019-01-06T14:02:39.130Z,19.60
2019-01-06T14:05:27.978Z,19.30
2019-01-06T14:08:24.291Z,19.10
2019-01-06T14:11:20.209Z,18.90
2019-01-06T14:14:19.038Z,18.40
2019-01-06T14:17:08.973Z,17.90
2019-01-06T14:20:16.931Z,17.50
2019-01-06T14:23:12.252Z,17.10
2019-01-06T14:26:14.760Z,16.70
2019-01-06T14:29:22.885Z,16.50
2019-01-06T14:32:32.857Z,16.20
2019-01-06T14:35:26.411Z,16.10
2019-01-06T14:38:18.836Z,16.00
2019-01-06T14:41:11.177Z,15.80
2019-01-06T14:44:00.097Z,15.60
2019-01-06T14:46:49.428Z,15.40
2019-01-06T14:49:38.175Z,15.20
2019-01-06T14:52:24.340Z,15.10
2019-01-06T14:55:14.545Z,15.10
2019-01-06T14:58:07.041Z,15.00
2019-01-06T15:00:55.086Z,14.90
2019-01-06T15:03:43.877Z,14.90
2019-01-06T15:06:34.181Z,14.70
2019-01-06T15:09:36.969Z,14.60
2019-01-06T15:12:25.540Z,14.40
2019-01-06T15:15:14.000Z,14.30
2019-01-06T15:18:08.954Z,14.10
2019-01-06T15:21:04.311Z,14.00
2019-01-06T15:23:57.237Z,13.80
2019-01-06T15:26:53.632Z,13.70
2019-01-06T15:29:42.248Z,13.50
2019-01-06T15:32:30.866Z,13.40
2019-01-06T15:35:23.396Z,13.20
2019-01-06T15:38:06.251Z,13.10
2019-01-06T15:41:02.246Z,13.00
2019-01-06T15:44:11.595Z,12.90
2019-01-06T15:47:00.839Z,12.70
2019-01-06T15:49:51.474Z,12.50
2019-01-06T15:52:40.323Z,12.40
2019-01-06T15:55:45.945Z,12.20
2019-01-06T15:58:41.817Z,12.10
2019-01-06T16:01:44.562Z,11.90
2019-01-06T16:04:36.982Z,11.70
2019-01-06T16:07:42.532Z,11.50
2019-01-06T16:10:33.068Z,11.30
2019-01-06T16:13:28.373Z,11.10
2019-01-06T16:16:17.456Z,10.90
2019-01-06T16:19:11.771Z,10.80
2019-01-06T16:22:11.243Z,10.60
2019-01-06T16:25:00.205Z,10.50
2019-01-06T16:27:51.404Z,10.40
2019-01-06T16:30:40.073Z,10.30
2019-01-06T16:33:39.176Z,10.20
2019-01-06T16:36:38.149Z,10.10
2019-01-06T16:39:26.482Z,10.00
2019-01-06T16:42:14.750Z,9.90
2019-01-06T16:45:17.658Z,9.80
2019-01-06T16:48:10.435Z,9.70
2019-01-06T16:50:56.992Z,9.70
2019-01-06T16:53:44.149Z,9.60
2019-01-06T16:56:41.561Z,9.50
2019-01-06T16:59:29.885Z,9.40
2019-01-06T17:02:31.164Z,9.40
2019-01-06T17:05:20.332Z,9.30
2019-01-06T17:08:09.206Z,9.30
2019-01-06T17:10:59.962Z,9.30
2019-01-06T17:13:50.105Z,9.40
2019-01-06T17:16:38.835Z,9.60
2019-01-06T17:19:29.300Z,9.80
2019-01-06T17:22:17.964Z,9.90
2019-01-06T17:25:06.348Z,10.10
2019-01-06T17:28:05.468Z,10.30
2019-01-06T17:31:03.579Z,10.40
2019-01-06T17:34:10.892Z,10.60
2019-01-06T17:36:59.582Z,10.70
2019-01-06T17:39:58.306Z,10.80
2019-01-06T17:42:55.881Z,11.00
2019-01-06T17:45:44.986Z,11.00
2019-01-06T17:48:39.527Z,11.10
2019-01-06T17:51:35.787Z,11.20
2019-01-06T17:54:28.954Z,11.30
2019-01-06T17:57:20.958Z,11.40
2019-01-06T18:00:28.923Z,11.40
2019-01-06T18:03:17.865Z,11.50
2019-01-06T18:06:06.388Z,11.50
2019-01-06T18:08:55.473Z,11.60
2019-01-06T18:11:51.522Z,11.60
2019-01-06T18:14:40.942Z,11.60
2019-01-06T18:17:40.736Z,11.70
2019-01-06T18:20:33.731Z,11.70
2019-01-06T18:23:23.637Z,11.70
2019-01-06T18:26:16.793Z,11.80
2019-01-06T18:29:08.928Z,11.80
2019-01-06T18:32:01.866Z,11.80
2019-01-06T18:34:50.705Z,11.80
2019-01-06T18:37:54.750Z,11.90
2019-01-06T18:40:42.956Z,11.90
2019-01-06T18:43:34.763Z,11.90
2019-01-06T18:46:19.889Z,11.90
2019-01-06T18:49:23.006Z,11.90
2019-01-06T18:52:11.511Z,11.90
2019-01-06T18:55:20.917Z,11.90
2019-01-06T18:58:09.212Z,11.90
2019-01-06T19:01:00.226Z,11.90
2019-01-06T19:03:49.250Z,11.90
2019-01-06T19:06:45.741Z,11.90
2019-01-06T19:09:41.816Z,11.90
2019-01-06T19:12:30.341Z,11.90
2019-01-06T19:15:22.566Z,11.90
2019-01-06T19:18:15.679Z,11.90
2019-01-06T19:21:05.423Z,11.90
2019-01-06T19:23:55.849Z,11.90
2019-01-06T19:26:51.868Z,11.90
2019-01-06T19:29:40.297Z,11.90
2019-01-06T19:32:28.599Z,11.90
2019-01-06T19:35:15.705Z,11.90
2019-01-06T19:38:12.843Z,11.90
2019-01-06T19:41:21.414Z,11.80
2019-01-06T19:44:10.953Z,11.80
2019-01-06T19:46:50.511Z,11.80
2019-01-06T19:49:50.051Z,11.80
2019-01-06T19:52:38.876Z,11.80
2019-01-06T19:55:38.602Z,11.80
2019-01-06T19:58:27.527Z,11.80
2019-01-06T20:01:14.981Z,11.80
2019-01-06T20:04:03.877Z,11.80
2019-01-06T20:07:07.627Z,11.70
2019-01-06T20:10:03.860Z,11.70
2019-01-06T20:12:53.971Z,11.70
2019-01-06T20:15:42.676Z,11.70
2019-01-06T20:18:32.448Z,11.70
2019-01-06T20:21:22.711Z,11.70
2019-01-06T20:24:15.498Z,11.60
2019-01-06T20:27:08.108Z,11.60
2019-01-06T20:29:58.058Z,11.60
2019-01-06T20:32:46.651Z,11.60
2019-01-06T20:35:35.453Z,11.60
2019-01-06T20:38:25.927Z,11.60
2019-01-06T20:41:21.912Z,11.60
2019-01-06T20:44:10.166Z,11.60
2019-01-06T20:47:12.435Z,11.50
2019-01-06T20:50:17.659Z,11.50
2019-01-06T20:53:02.080Z,11.50
2019-01-06T20:55:50.777Z,11.50
2019-01-06T20:58:40.670Z,11.50
2019-01-06T21:01:29.281Z,11.40
2019-01-06T21:04:18.659Z,11.40
2019-01-06T21:07:08.747Z,11.40
2019-01-06T21:10:17.172Z,11.40
2019-01-06T21:13:13.546Z,11.40
2019-01-06T21:16:01.829Z,11.40
2019-01-06T21:19:10.071Z,11.40
2019-01-06T21:22:14.006Z,11.30
2019-01-06T21:25:18.613Z,11.30
2019-01-06T21:28:07.965Z,11.30
2019-01-06T21:30:56.319Z,11.30
2019-01-06T21:34:04.807Z,11.30
2019-01-06T21:37:06.909Z,11.20
2019-01-06T21:39:55.248Z,11.20
2019-01-06T21:42:58.684Z,11.20
2019-01-06T21:45:47.639Z,11.20
2019-01-06T21:48:38.405Z,11.10
2019-01-06T21:51:28.615Z,11.10
2019-01-06T21:54:30.229Z,11.10
2019-01-06T21:57:21.013Z,11.10
2019-01-06T22:00:14.298Z,11.10
2019-01-06T22:03:21.734Z,11.00
2019-01-06T22:06:18.249Z,11.00
2019-01-06T22:09:20.592Z,11.00
2019-01-06T22:12:19.916Z,10.90
2019-01-06T22:15:16.327Z,10.90
2019-01-06T22:18:04.676Z,10.90
2019-01-06T22:20:55.030Z,10.90
2019-01-06T22:23:39.868Z,10.90
2019-01-06T22:26:28.866Z,10.80
2019-01-06T22:29:17.535Z,10.80
2019-01-06T22:32:16.570Z,10.80
2019-01-06T22:35:09.172Z,10.80
2019-01-06T22:37:53.272Z,10.70
2019-01-06T22:40:38.146Z,10.70
2019-01-06T22:43:26.360Z,10.70
2019-01-06T22:46:19.390Z,10.70
2019-01-06T22:49:11.814Z,10.60
2019-01-06T22:52:00.538Z,10.70
2019-01-06T22:54:49.266Z,10.60
2019-01-06T22:57:37.540Z,10.60
2019-01-06T23:00:34.172Z,10.60
2019-01-06T23:03:30.530Z,10.60
2019-01-06T23:06:25.907Z,10.50
2019-01-06T23:09:19.083Z,10.50
2019-01-06T23:12:12.068Z,10.50
2019-01-06T23:15:02.389Z,10.50
2019-01-06T23:18:04.561Z,10.40
2019-01-06T23:21:03.958Z,10.40
2019-01-06T23:24:12.055Z,10.40
2019-01-06T23:27:01.839Z,10.40
2019-01-06T23:29:50.663Z,10.40
2019-01-06T23:32:58.004Z,10.30
2019-01-06T23:35:45.231Z,10.30
2019-01-06T23:38:34.109Z,10.30
2019-01-06T23:41:35.988Z,10.30
2019-01-06T23:44:28.759Z,10.30
2019-01-06T23:47:31.436Z,10.20
2019-01-06T23:50:36.700Z,10.20
2019-01-06T23:53:25.521Z,10.20
2019-01-06T23:56:27.662Z,10.20
2019-01-06T23:59:30.447Z,10.20
